KAUW/AUW METAR and TAF weather

Enter ICAO airport designator
Station Type Date Time Source
KAUW METAR 2022/06/25 22:54 UTC NOAA

KAUW 252254Z AUTO 16009KT 10SM FEW014 BKN034 BKN070 24/18 A2989 RMK AO2 SLP121 T02390183


Station Type Date Time Source
KAUW Decoded METAR 2022/06/25 22:54 UTC NOAA

WAUSAU DOWNTOWN AIRPORT, WI, United States (KAUW) 44-56N 089-37W 362M
Jun 25, 2022 - 06:54 PM EDT / 2022.06.25 2254 UTC
Wind: from the SSE (160 degrees) at 10 MPH (9 KT):0
Visibility: 10 mile(s):0
Sky conditions: mostly cloudy
Temperature: 75.0 F (23.9 C)
Dew Point: 64.9 F (18.3 C)
Relative Humidity: 70%
Pressure (altimeter): 29.89 in. Hg (1012 hPa)
ob: KAUW 252254Z AUTO 16009KT 10SM FEW014 BKN034 BKN070 24/18 A2989 RMK AO2 SLP121 T02390183
cycle: 23

Station Type Date Time Source
KAUW TAF 2022/06/25 20:36 UTC NOAA

TAF
AMD KAUW 251934Z 2520/2618 18007KT P6SM VCSH BKN025
FM252100 19009KT P6SM VCSH OVC012
FM260200 25006KT P6SM VCSH BKN013
FM260500 27007KT P6SM SKC
FM261200 28010G19KT P6SM SKC
FM261600 28015G29KT P6SM SCT050

Example: see airport list